createdAt,value
2018-03-11T00:01:30.115Z,97553.99
2018-03-11T00:04:03.746Z,97549.09
2018-03-11T00:06:37.290Z,97542.03
2018-03-11T00:09:10.868Z,97535.89
2018-03-11T00:11:44.692Z,97545.62
2018-03-11T00:14:18.355Z,97548.49
2018-03-11T00:16:55.885Z,97546.55
2018-03-11T00:19:29.400Z,97550.17
2018-03-11T00:22:02.986Z,97547.45
2018-03-11T00:24:36.837Z,97541.53
2018-03-11T00:27:10.572Z,97537.78
2018-03-11T00:29:44.169Z,97532.72
2018-03-11T00:32:17.821Z,97535.04
2018-03-11T00:34:52.115Z,97536.73
2018-03-11T00:37:25.705Z,97532.53
2018-03-11T00:39:59.349Z,97523.40
2018-03-11T00:42:33.018Z,97525.45
2018-03-11T00:45:06.785Z,97527.92
2018-03-11T00:47:40.341Z,97523.58
2018-03-11T00:50:13.889Z,97518.22
2018-03-11T00:52:47.452Z,97514.91
2018-03-11T00:55:21.213Z,97511.28
2018-03-11T00:57:54.963Z,97501.34
2018-03-11T01:00:28.486Z,97496.81
2018-03-11T01:03:02.087Z,97499.25
2018-03-11T01:05:35.805Z,97488.87
2018-03-11T01:08:09.310Z,97481.72
2018-03-11T01:10:42.990Z,97476.77
2018-03-11T01:13:16.533Z,97477.43
2018-03-11T01:15:50.093Z,97476.14
2018-03-11T01:18:23.685Z,97470.59
2018-03-11T01:20:57.253Z,97471.57
2018-03-11T01:23:30.798Z,97472.41
2018-03-11T01:26:04.381Z,97472.34
2018-03-11T01:28:37.898Z,97474.44
2018-03-11T01:31:11.414Z,97468.80
2018-03-11T01:33:44.933Z,97461.06
2018-03-11T01:36:18.485Z,97461.53
2018-03-11T01:38:52.175Z,97459.95
2018-03-11T01:41:25.969Z,97459.19
2018-03-11T01:43:59.658Z,97454.33
2018-03-11T01:46:33.325Z,97451.34
2018-03-11T01:49:06.822Z,97448.53
2018-03-11T01:51:40.360Z,97444.41
2018-03-11T01:54:14.030Z,97437.45
2018-03-11T01:56:47.614Z,97435.97
2018-03-11T01:59:21.190Z,97425.56
2018-03-11T02:01:54.817Z,97421.75
2018-03-11T02:04:28.495Z,97411.87
2018-03-11T02:07:02.021Z,97406.09
2018-03-11T02:09:35.605Z,97398.02
2018-03-11T02:12:09.232Z,97395.25
2018-03-11T02:14:42.758Z,97385.83
2018-03-11T02:17:16.529Z,97381.94
2018-03-11T02:19:50.085Z,97369.41
2018-03-11T02:22:23.737Z,97365.41
2018-03-11T02:24:57.315Z,97367.31
2018-03-11T02:27:30.969Z,97360.95
2018-03-11T02:30:04.668Z,97357.41
2018-03-11T02:32:38.147Z,97355.59
2018-03-11T02:35:11.834Z,97346.28
2018-03-11T02:37:45.381Z,97342.84
2018-03-11T02:40:19.048Z,97336.30
2018-03-11T02:42:52.663Z,97333.98
2018-03-11T02:45:26.275Z,97332.17
2018-03-11T02:47:59.863Z,97327.71
2018-03-11T02:50:33.438Z,97319.70
2018-03-11T02:53:06.970Z,97323.95
2018-03-11T02:55:40.521Z,97325.06
2018-03-11T02:58:14.152Z,97323.43
2018-03-11T03:00:47.686Z,97321.40
2018-03-11T03:03:21.430Z,97321.56
2018-03-11T03:05:54.979Z,97316.14
2018-03-11T03:08:28.687Z,97308.64
2018-03-11T03:11:02.236Z,97306.80
2018-03-11T03:13:35.835Z,97305.50
2018-03-11T03:16:09.542Z,97295.55
2018-03-11T03:18:43.171Z,97290.20
2018-03-11T03:21:16.740Z,97291.61
2018-03-11T03:23:50.243Z,97285.77
2018-03-11T03:26:23.845Z,97287.73
2018-03-11T03:28:57.485Z,97280.34
2018-03-11T03:31:31.114Z,97262.41
2018-03-11T03:34:04.744Z,97262.29
2018-03-11T03:36:38.316Z,97269.25
2018-03-11T03:39:11.999Z,97265.70
2018-03-11T03:41:45.595Z,97268.52
2018-03-11T03:44:19.222Z,97270.67
2018-03-11T03:46:52.794Z,97282.08
2018-03-11T03:49:26.422Z,97278.91
2018-03-11T03:52:00.026Z,97262.19
2018-03-11T03:54:33.613Z,97252.36
2018-03-11T03:57:07.316Z,97246.45
2018-03-11T03:59:40.916Z,97246.84
2018-03-11T04:02:14.545Z,97242.09
2018-03-11T04:04:48.185Z,97231.73
2018-03-11T04:07:21.847Z,97227.28
2018-03-11T04:09:55.370Z,97222.30
2018-03-11T04:12:28.952Z,97212.37
2018-03-11T04:15:02.657Z,97201.53
2018-03-11T04:17:36.233Z,97209.56
2018-03-11T04:20:09.758Z,97199.43
2018-03-11T04:22:43.434Z,97196.41
2018-03-11T04:25:16.966Z,97193.41
2018-03-11T04:27:50.762Z,97189.41
2018-03-11T04:30:24.402Z,97186.56
2018-03-11T04:32:58.073Z,97170.05
2018-03-11T04:35:31.735Z,97169.82
2018-03-11T04:38:05.426Z,97168.73
2018-03-11T04:40:39.077Z,97165.46
2018-03-11T04:43:12.658Z,97160.39
2018-03-11T04:45:46.206Z,97149.45
2018-03-11T04:48:20.775Z,97150.86
2018-03-11T04:50:54.866Z,97150.91
2018-03-11T04:53:28.861Z,97158.03
2018-03-11T04:56:02.675Z,97162.93
2018-03-11T04:58:36.303Z,97154.90
2018-03-11T05:01:09.949Z,97145.64
2018-03-11T05:03:43.611Z,97143.45
2018-03-11T05:06:17.206Z,97131.33
2018-03-11T05:08:50.857Z,97130.31
2018-03-11T05:11:24.590Z,97140.96
2018-03-11T05:13:58.249Z,97140.31
2018-03-11T05:16:31.761Z,97123.64
2018-03-11T05:19:05.405Z,97134.20
2018-03-11T05:21:39.065Z,97122.66
2018-03-11T05:24:12.823Z,97118.06
2018-03-11T05:26:46.502Z,97104.56
2018-03-11T05:29:20.084Z,97106.88
2018-03-11T05:31:53.670Z,97106.44
2018-03-11T05:34:27.352Z,97098.31
2018-03-11T05:40:09.538Z,97100.78
2018-03-11T05:42:43.073Z,97097.38
2018-03-11T05:45:16.604Z,97095.06
2018-03-11T05:47:50.170Z,97090.70
2018-03-11T05:50:23.697Z,97099.05
2018-03-11T05:52:57.382Z,97099.45
2018-03-11T05:55:30.898Z,97089.22
2018-03-11T05:58:04.558Z,97089.27
2018-03-11T06:00:38.225Z,97085.68
2018-03-11T06:03:12.161Z,97076.55
2018-03-11T06:05:45.738Z,97078.91
2018-03-11T06:08:19.450Z,97063.72
2018-03-11T06:10:53.098Z,97072.41
2018-03-11T06:13:26.722Z,97065.67
2018-03-11T06:16:00.320Z,97079.00
2018-03-11T06:18:33.879Z,97064.98
2018-03-11T06:21:07.429Z,97063.85
2018-03-11T06:23:41.010Z,97062.54
2018-03-11T06:26:14.783Z,97061.41
2018-03-11T06:28:48.398Z,97065.20
2018-03-11T06:31:21.995Z,97054.23
2018-03-11T06:33:55.566Z,97059.38
2018-03-11T06:36:29.193Z,97042.12
2018-03-11T06:39:02.847Z,97032.06
2018-03-11T06:41:36.520Z,97027.60
2018-03-11T06:44:10.118Z,97032.97
2018-03-11T06:46:43.741Z,97023.56
2018-03-11T06:49:17.386Z,97021.59
2018-03-11T06:51:50.947Z,97021.25
2018-03-11T06:54:24.491Z,97021.00
2018-03-11T06:56:58.547Z,97020.92
2018-03-11T06:59:32.180Z,97021.66
2018-03-11T07:02:05.781Z,97023.81
2018-03-11T07:04:39.377Z,97026.57
2018-03-11T07:07:13.053Z,97031.98
2018-03-11T07:09:46.597Z,97028.73
2018-03-11T07:12:20.338Z,97026.88
2018-03-11T07:14:53.968Z,97024.83
2018-03-11T07:17:27.589Z,97029.41
2018-03-11T07:20:01.112Z,97020.17
2018-03-11T07:22:34.890Z,97026.94
2018-03-11T07:25:08.414Z,97023.28
2018-03-11T07:27:41.950Z,97012.63
2018-03-11T07:30:15.555Z,97014.80
2018-03-11T07:32:49.122Z,97017.58
2018-03-11T07:35:22.653Z,97013.98
2018-03-11T07:37:56.242Z,97020.48
2018-03-11T07:40:30.067Z,97025.16
2018-03-11T07:43:03.644Z,97029.16
2018-03-11T07:45:37.465Z,97022.19
2018-03-11T07:48:11.243Z,97032.16
2018-03-11T07:50:44.803Z,97022.14
2018-03-11T07:53:18.342Z,97025.17
2018-03-11T07:55:51.827Z,97024.45
2018-03-11T07:58:25.487Z,97036.28
2018-03-11T08:00:59.178Z,97023.84
2018-03-11T08:03:32.959Z,97031.99
2018-03-11T08:06:06.543Z,97041.98
2018-03-11T08:08:40.095Z,97046.97
2018-03-11T08:11:13.746Z,97047.18
2018-03-11T08:13:48.127Z,97051.00
2018-03-11T08:16:21.711Z,97046.02
2018-03-11T08:18:55.274Z,97058.37
2018-03-11T08:21:28.892Z,97064.17
2018-03-11T08:24:02.584Z,97065.69
2018-03-11T08:26:36.357Z,97066.38
2018-03-11T08:29:10.019Z,97069.80
2018-03-11T08:31:43.791Z,97072.93
2018-03-11T08:34:17.583Z,97060.99
2018-03-11T08:36:51.318Z,97054.25
2018-03-11T08:39:25.070Z,97053.22
2018-03-11T08:41:58.801Z,97042.92
2018-03-11T08:44:32.587Z,97043.83
2018-03-11T08:47:07.117Z,97040.81
2018-03-11T08:49:40.820Z,97052.26
2018-03-11T08:52:14.339Z,97049.70
2018-03-11T08:54:48.115Z,97042.48
2018-03-11T08:57:21.816Z,97039.47
2018-03-11T08:59:55.475Z,97040.28
2018-03-11T09:02:29.215Z,97045.63
2018-03-11T09:05:02.944Z,97046.84
2018-03-11T09:07:36.678Z,97048.13
2018-03-11T09:10:10.254Z,97056.08
2018-03-11T09:12:44.062Z,97047.08
2018-03-11T09:15:17.580Z,97041.91
2018-03-11T09:17:51.196Z,97032.95
2018-03-11T09:20:24.824Z,97024.69
2018-03-11T09:22:58.634Z,97019.52
2018-03-11T09:25:32.270Z,97029.47
2018-03-11T09:28:06.003Z,97031.82
2018-03-11T09:30:39.562Z,97032.86
2018-03-11T09:33:13.175Z,97030.53
2018-03-11T09:35:46.749Z,97031.01
2018-03-11T09:38:20.527Z,97012.14
2018-03-11T09:40:54.576Z,97027.86
2018-03-11T09:43:28.234Z,97026.90
2018-03-11T09:46:01.809Z,97019.41
2018-03-11T09:48:35.466Z,97026.76
2018-03-11T09:51:09.093Z,97021.83
2018-03-11T09:53:42.851Z,97015.20
2018-03-11T09:56:16.582Z,97017.92
2018-03-11T09:58:50.211Z,97015.22
2018-03-11T10:01:23.754Z,97019.38
2018-03-11T10:03:57.307Z,97009.67
2018-03-11T10:06:31.408Z,97004.95
2018-03-11T10:09:05.009Z,97002.88
2018-03-11T10:11:38.737Z,97003.75
2018-03-11T10:14:12.398Z,97003.08
2018-03-11T10:17:05.538Z,97009.58
2018-03-11T10:19:39.246Z,97004.87
2018-03-11T10:22:12.850Z,97015.61
2018-03-11T10:24:46.439Z,97000.97
2018-03-11T10:27:20.051Z,96999.40
2018-03-11T10:29:53.664Z,96997.63
2018-03-11T10:32:27.264Z,96995.80
2018-03-11T10:35:00.814Z,97001.76
2018-03-11T10:37:34.423Z,96989.89
2018-03-11T10:40:08.142Z,96998.10
2018-03-11T10:42:41.675Z,97004.70
2018-03-11T10:45:15.303Z,96992.29
2018-03-11T10:47:49.138Z,96993.03
2018-03-11T10:50:22.682Z,96999.73
2018-03-11T10:52:56.366Z,96996.50
2018-03-11T10:55:30.047Z,96996.55
2018-03-11T10:58:03.594Z,97005.70
2018-03-11T11:00:42.890Z,96995.69
2018-03-11T11:03:16.627Z,96996.11
2018-03-11T11:05:50.398Z,97007.77
2018-03-11T11:08:24.085Z,97004.68
2018-03-11T11:10:57.730Z,97013.00
2018-03-11T11:13:31.510Z,97010.46
2018-03-11T11:16:05.395Z,97017.92
2018-03-11T11:18:39.130Z,97016.98
2018-03-11T11:21:12.721Z,97017.19
2018-03-11T11:23:46.510Z,97018.83
2018-03-11T11:26:20.046Z,97023.34
2018-03-11T11:28:53.678Z,97025.05
2018-03-11T11:31:27.381Z,97027.44
2018-03-11T11:34:00.963Z,97024.34
2018-03-11T11:36:34.514Z,97020.37
2018-03-11T11:39:08.080Z,97017.70
2018-03-11T11:41:41.710Z,97021.87
2018-03-11T11:44:15.234Z,97024.06
2018-03-11T11:46:48.898Z,97025.72
2018-03-11T11:49:22.667Z,97027.28
2018-03-11T11:51:56.274Z,97026.44
2018-03-11T11:54:30.086Z,97027.83
2018-03-11T11:57:04.150Z,97026.24
2018-03-11T11:59:37.644Z,97014.41
2018-03-11T12:02:11.393Z,97012.30
2018-03-11T12:04:44.901Z,97007.80
2018-03-11T12:07:18.441Z,96999.06
2018-03-11T12:09:52.014Z,97003.42
2018-03-11T12:12:25.662Z,96994.10
2018-03-11T12:14:59.332Z,96994.77
2018-03-11T12:17:32.923Z,96996.78
2018-03-11T12:20:06.698Z,96997.04
2018-03-11T12:22:40.455Z,96999.74
2018-03-11T12:25:14.246Z,96993.89
2018-03-11T12:27:47.857Z,96990.14
2018-03-11T12:30:21.542Z,96981.42
2018-03-11T12:32:55.074Z,96980.06
2018-03-11T12:35:28.623Z,96974.84
2018-03-11T12:38:02.128Z,96967.82
2018-03-11T12:40:35.901Z,96964.82
2018-03-11T12:43:09.434Z,96956.48
2018-03-11T12:45:43.085Z,96945.15
2018-03-11T12:48:16.714Z,96946.92
2018-03-11T12:50:50.299Z,96937.08
2018-03-11T12:53:24.041Z,96934.99
2018-03-11T12:55:58.739Z,96937.87
2018-03-11T12:58:32.401Z,96939.63
2018-03-11T13:01:06.001Z,96932.84
2018-03-11T13:03:39.679Z,96935.14
2018-03-11T13:06:13.441Z,96931.48
2018-03-11T13:08:46.962Z,96930.70
2018-03-11T13:11:20.479Z,96928.59
2018-03-11T13:13:54.062Z,96923.47
2018-03-11T13:16:27.809Z,96924.26
2018-03-11T13:19:01.370Z,96915.91
2018-03-11T13:21:35.180Z,96913.70
2018-03-11T13:24:08.863Z,96911.94
2018-03-11T13:26:42.427Z,96907.41
2018-03-11T13:29:15.915Z,96917.81
2018-03-11T13:31:49.480Z,96920.73
2018-03-11T13:34:28.038Z,96926.80
2018-03-11T13:37:01.648Z,96926.73
2018-03-11T13:39:47.231Z,96919.50
2018-03-11T13:42:20.988Z,96911.82
2018-03-11T13:45:06.354Z,96900.31
2018-03-11T13:47:40.005Z,96896.25
2018-03-11T13:50:13.655Z,96890.52
2018-03-11T13:52:59.403Z,96881.14
2018-03-11T13:55:33.127Z,96877.27
2018-03-11T13:58:25.608Z,96870.69
2018-03-11T14:00:59.248Z,96869.14
2018-03-11T14:03:32.877Z,96875.77
2018-03-11T14:06:24.357Z,96872.48
2018-03-11T14:08:58.122Z,96886.75
2018-03-11T14:11:31.774Z,96889.48
2018-03-11T14:14:05.383Z,96891.44
2018-03-11T14:16:38.943Z,96893.78
2018-03-11T14:19:12.552Z,96891.63
2018-03-11T14:21:46.298Z,96893.78
2018-03-11T14:24:20.003Z,96894.02
2018-03-11T14:26:53.697Z,96910.44
2018-03-11T14:29:27.299Z,96909.08
2018-03-11T14:32:01.013Z,96917.09
2018-03-11T14:34:34.632Z,96919.63
2018-03-11T14:37:08.303Z,96916.68
2018-03-11T14:39:42.142Z,96916.70
2018-03-11T14:42:15.930Z,96915.13
2018-03-11T14:44:49.576Z,96913.14
2018-03-11T14:47:23.348Z,96909.81
2018-03-11T14:49:57.011Z,96905.91
2018-03-11T14:52:30.859Z,96906.87
2018-03-11T14:55:04.426Z,96903.16
2018-03-11T14:57:37.995Z,96902.77
2018-03-11T15:00:11.594Z,96904.33
2018-03-11T15:02:45.151Z,96898.52
2018-03-11T15:05:18.886Z,96905.34
2018-03-11T15:07:52.635Z,96904.38
2018-03-11T15:10:26.400Z,96902.23
2018-03-11T15:13:00.017Z,96897.52
2018-03-11T15:15:33.628Z,96902.23
2018-03-11T15:18:07.312Z,96900.88
2018-03-11T15:20:41.043Z,96905.75
2018-03-11T15:23:14.777Z,96897.33
2018-03-11T15:25:48.369Z,96897.55
2018-03-11T15:28:22.192Z,96900.42
2018-03-11T15:30:55.989Z,96900.06
2018-03-11T15:33:29.770Z,96904.91
2018-03-11T15:36:03.446Z,96899.84
2018-03-11T15:38:37.178Z,96901.34
2018-03-11T15:41:10.907Z,96903.88
2018-03-11T15:43:44.694Z,96899.97
2018-03-11T15:49:19.380Z,96896.28
2018-03-11T15:51:52.991Z,96896.12
2018-03-11T15:54:26.687Z,96891.98
2018-03-11T15:57:00.419Z,96891.58
2018-03-11T15:59:34.305Z,96894.70
2018-03-11T16:02:07.831Z,96891.17
2018-03-11T16:04:41.486Z,96883.18
2018-03-11T16:07:15.025Z,96886.45
2018-03-11T16:09:48.771Z,96890.00
2018-03-11T16:12:22.487Z,96887.61
2018-03-11T16:14:56.077Z,96890.94
2018-03-11T16:17:29.826Z,96892.48
2018-03-11T16:20:03.567Z,96886.94
2018-03-11T16:22:37.387Z,96884.27
2018-03-11T16:25:11.071Z,96888.18
2018-03-11T16:27:44.830Z,96885.63
2018-03-11T16:30:18.567Z,96894.14
2018-03-11T16:32:52.235Z,96892.66
2018-03-11T16:35:25.763Z,96897.24
2018-03-11T16:37:59.641Z,96895.49
2018-03-11T16:40:33.220Z,96906.39
2018-03-11T16:43:07.293Z,96900.72
2018-03-11T16:45:41.136Z,96896.56
2018-03-11T16:48:14.927Z,96893.25
2018-03-11T16:50:48.728Z,96892.18
2018-03-11T16:53:22.620Z,96895.30
2018-03-11T16:55:56.415Z,96891.40
2018-03-11T16:58:30.042Z,96891.19
2018-03-11T17:01:03.640Z,96892.93
2018-03-11T17:03:37.380Z,96893.45
2018-03-11T17:06:10.966Z,96887.55
2018-03-11T17:08:44.723Z,96887.25
2018-03-11T17:11:18.646Z,96884.72
2018-03-11T17:13:52.389Z,96890.06
2018-03-11T17:16:33.342Z,96886.89
2018-03-11T17:19:06.894Z,96888.84
2018-03-11T17:21:40.665Z,96886.88
2018-03-11T17:24:14.211Z,96887.44
2018-03-11T17:26:47.798Z,96889.64
2018-03-11T17:29:21.598Z,96896.81
2018-03-11T17:31:55.212Z,96898.87
2018-03-11T17:34:28.906Z,96901.17
2018-03-11T17:37:02.492Z,96893.55
2018-03-11T17:39:36.295Z,96895.52
2018-03-11T17:42:09.919Z,96897.38
2018-03-11T17:44:43.583Z,96898.11
2018-03-11T17:47:17.174Z,96902.70
2018-03-11T17:49:50.927Z,96903.77
2018-03-11T17:52:24.459Z,96898.13
2018-03-11T17:54:57.961Z,96901.50
2018-03-11T17:57:31.624Z,96899.66
2018-03-11T18:00:05.262Z,96899.14
2018-03-11T18:02:38.966Z,96891.16
2018-03-11T18:05:12.745Z,96896.49
2018-03-11T18:07:46.248Z,96896.22
2018-03-11T18:10:19.846Z,96893.66
2018-03-11T18:12:53.354Z,96902.30
2018-03-11T18:15:27.073Z,96905.12
2018-03-11T18:18:00.953Z,96904.38
2018-03-11T18:20:34.596Z,96913.78
2018-03-11T18:23:08.383Z,96910.92
2018-03-11T18:25:41.938Z,96920.51
2018-03-11T18:28:15.598Z,96919.15
2018-03-11T18:30:49.190Z,96917.49
2018-03-11T18:33:22.854Z,96921.11
2018-03-11T18:35:56.435Z,96921.27
2018-03-11T18:38:30.010Z,96922.63
2018-03-11T18:41:03.560Z,96920.14
2018-03-11T18:43:37.261Z,96912.95
2018-03-11T18:46:10.822Z,96913.58
2018-03-11T18:48:44.592Z,96908.25
2018-03-11T18:51:18.131Z,96910.69
2018-03-11T18:53:51.667Z,96905.59
2018-03-11T18:56:25.334Z,96904.65
2018-03-11T18:58:59.107Z,96907.16
2018-03-11T19:01:32.614Z,96904.44
2018-03-11T19:04:06.282Z,96905.02
2018-03-11T19:06:39.849Z,96906.30
2018-03-11T19:09:13.486Z,96909.33
2018-03-11T19:11:47.161Z,96908.82
2018-03-11T19:14:20.743Z,96913.42
2018-03-11T19:16:54.337Z,96913.94
2018-03-11T19:19:27.921Z,96909.14
2018-03-11T19:22:01.665Z,96908.57
2018-03-11T19:24:35.330Z,96916.72
2018-03-11T19:27:25.302Z,96918.81
2018-03-11T19:29:59.111Z,96915.01
2018-03-11T19:32:32.844Z,96910.27
2018-03-11T19:35:06.582Z,96917.64
2018-03-11T19:37:40.278Z,96916.37
2018-03-11T19:40:14.018Z,96907.26
2018-03-11T19:42:47.658Z,96906.86
2018-03-11T19:45:21.266Z,96905.80
2018-03-11T19:47:55.018Z,96893.91
2018-03-11T19:50:28.592Z,96884.17
2018-03-11T19:53:02.155Z,96888.42
2018-03-11T19:55:35.710Z,96886.52
2018-03-11T19:58:09.412Z,96890.38
2018-03-11T20:00:43.157Z,96885.02
2018-03-11T20:03:16.873Z,96897.51
2018-03-11T20:05:50.665Z,96894.88
2018-03-11T20:08:24.434Z,96897.12
2018-03-11T20:10:58.266Z,96892.23
2018-03-11T20:13:31.910Z,96896.94
2018-03-11T20:16:05.606Z,96898.02
2018-03-11T20:18:39.206Z,96895.52
2018-03-11T20:21:12.738Z,96894.16
2018-03-11T20:23:46.262Z,96894.43
2018-03-11T20:26:20.065Z,96894.09
2018-03-11T20:28:53.775Z,96897.63
2018-03-11T20:31:27.527Z,96890.38
2018-03-11T20:34:01.046Z,96893.31
2018-03-11T20:36:34.640Z,96890.38
2018-03-11T20:39:08.184Z,96888.02
2018-03-11T20:41:41.779Z,96888.30
2018-03-11T20:44:15.715Z,96883.08
2018-03-11T20:46:49.438Z,96878.88
2018-03-11T20:49:23.315Z,96873.47
2018-03-11T20:51:56.954Z,96875.16
2018-03-11T20:54:30.801Z,96875.91
2018-03-11T20:57:04.405Z,96880.41
2018-03-11T20:59:37.987Z,96883.59
2018-03-11T21:02:11.607Z,96878.02
2018-03-11T21:04:45.368Z,96877.52
2018-03-11T21:07:19.074Z,96872.45
2018-03-11T21:09:52.855Z,96875.52
2018-03-11T21:12:26.586Z,96875.76
2018-03-11T21:15:00.274Z,96870.05
2018-03-11T21:17:33.888Z,96876.37
2018-03-11T21:20:07.554Z,96875.82
2018-03-11T21:22:41.394Z,96876.03
2018-03-11T21:25:15.059Z,96877.03
2018-03-11T21:27:48.781Z,96875.39
2018-03-11T21:30:30.614Z,96875.72
2018-03-11T21:33:04.326Z,96880.72
2018-03-11T21:35:38.082Z,96891.42
2018-03-11T21:38:11.631Z,96886.53
2018-03-11T21:40:45.180Z,96881.07
2018-03-11T21:43:18.792Z,96884.72
2018-03-11T21:45:52.531Z,96881.52
2018-03-11T21:48:26.247Z,96877.87
2018-03-11T21:50:59.811Z,96874.83
2018-03-11T21:53:33.540Z,96882.55
2018-03-11T21:56:07.143Z,96881.61
2018-03-11T21:58:40.878Z,96873.02
2018-03-11T22:01:14.680Z,96873.41
2018-03-11T22:03:48.374Z,96875.30
2018-03-11T22:06:22.083Z,96869.70
2018-03-11T22:08:55.690Z,96869.77
2018-03-11T22:11:29.297Z,96866.23
2018-03-11T22:14:03.080Z,96865.77
2018-03-11T22:16:36.750Z,96856.81
2018-03-11T22:19:10.388Z,96851.33
2018-03-11T22:21:44.030Z,96852.08
2018-03-11T22:24:17.753Z,96850.89
2018-03-11T22:26:51.439Z,96846.52
2018-03-11T22:29:25.071Z,96848.30
2018-03-11T22:31:58.827Z,96845.16
2018-03-11T22:34:32.400Z,96842.06
2018-03-11T22:37:06.137Z,96835.78
2018-03-11T22:39:39.705Z,96827.58
2018-03-11T22:42:13.327Z,96827.40
2018-03-11T22:44:46.996Z,96826.97
2018-03-11T22:47:20.619Z,96823.87
2018-03-11T22:49:54.370Z,96823.19
2018-03-11T22:52:27.951Z,96818.77
2018-03-11T22:55:01.582Z,96820.20
2018-03-11T22:57:35.255Z,96814.06
2018-03-11T23:00:08.849Z,96811.92
2018-03-11T23:02:42.503Z,96811.99
2018-03-11T23:05:16.219Z,96813.92
2018-03-11T23:07:49.888Z,96808.31
2018-03-11T23:10:23.587Z,96807.39
2018-03-11T23:12:57.418Z,96809.67
2018-03-11T23:15:31.068Z,96809.92
2018-03-11T23:18:04.622Z,96806.17
2018-03-11T23:20:38.285Z,96809.64
2018-03-11T23:23:11.878Z,96802.83
2018-03-11T23:25:45.691Z,96797.58
2018-03-11T23:28:19.411Z,96802.64
2018-03-11T23:30:53.047Z,96806.03
2018-03-11T23:33:26.741Z,96807.74
2018-03-11T23:36:00.409Z,96806.61
2018-03-11T23:38:34.044Z,96812.16
2018-03-11T23:41:07.622Z,96812.83
2018-03-11T23:43:41.231Z,96814.19
2018-03-11T23:46:14.891Z,96814.97
2018-03-11T23:48:48.549Z,96812.83
2018-03-11T23:51:22.148Z,96811.69
2018-03-11T23:53:55.861Z,96817.39
2018-03-11T23:56:29.507Z,96819.14
2018-03-11T23:59:03.192Z,96815.08
